Terminal Aerodrome Forecast
Issued by NWS

Home | Current Version | Previous Version | Text Only | Print | Product List | Glossary On
Versions: 1 2 3 4 5 6 7 8 9 10 11 12 13 14 15 16 17
000
FTUS42 KJAX 221529 AAA
TAFCRG
TAF AMD
KCRG 221529Z 2215/2312 24006KT P6SM BKN030
     FM221800 13009KT P6SM VCTS BKN035CB BKN120 BKN250
      TEMPO 2218/2222 VRB15G30KT 3SM +TSRA BR BKN030CB BKN070 OVC120
     FM230000 22005KT P6SM FEW070 SCT120 BKN250=

USA.gov is the U.S. government's official web portal to all federal, state and local government web resources and services.